Time;durP1;ratioP1;P1;durP2;ratioP2;P2;SDS_P1;SDS_P2;PMS_P1;PMS_P2;Temp;Humidity;BMP_temperature;BMP_pressure;BME280_temperature;BME280_humidity;BME280_pressure;Samples;Min_cycle;Max_cycle;Signal;HPM_P1;HPM_P2
2021/12/04 00:01:59;;;;;;;82.50;25.40;;;4.90;99.90;;;;;;5058829;28;20052;-78
2021/12/04 00:04:31;;;;;;;86.90;25.33;;;4.20;99.90;;;;;;5093514;28;20052;-79
2021/12/04 00:06:57;;;;;;;88.80;26.58;;;4.20;99.90;;;;;;5093465;28;20079;-79
2021/12/04 00:09:23;;;;;;;87.07;26.13;;;4.20;99.90;;;;;;5093359;28;20075;-79
2021/12/04 00:11:59;;;;;;;86.32;27.20;;;4.40;99.90;;;;;;5058661;28;20149;-78
2021/12/04 00:14:24;;;;;;;91.38;26.25;;;4.20;99.90;;;;;;5093386;28;20083;-78
2021/12/04 00:16:51;;;;;;;95.72;26.65;;;4.10;99.90;;;;;;5094684;28;20060;-79
2021/12/04 00:19:16;;;;;;;96.45;27.48;;;4.20;99.90;;;;;;5097179;28;20484;-79
2021/12/04 00:21:42;;;;;;;106.00;27.75;;;4.20;99.90;;;;;;5079453;28;20086;-79
2021/12/04 00:24:08;;;;;;;98.00;26.25;;;4.20;99.90;;;;;;5097542;28;20043;-78
2021/12/04 00:26:34;;;;;;;102.88;26.90;;;4.10;99.90;;;;;;5096812;28;20505;-79
2021/12/04 00:29:00;;;;;;;101.47;25.85;;;4.20;99.90;;;;;;5096849;28;20048;-78
2021/12/04 00:31:27;;;;;;;108.10;26.45;;;4.10;99.90;;;;;;5097155;28;20077;-78
2021/12/04 00:33:53;;;;;;;107.90;28.40;;;4.20;99.90;;;;;;5061927;28;20071;-79
2021/12/04 00:36:31;;;;;;;113.93;28.30;;;4.10;99.90;;;;;;5096692;28;20445;-78
2021/12/04 00:49:55;;;;;;;111.93;25.75;;;4.10;99.90;;;;;;5078320;28;20121;-78
2021/12/04 00:52:20;;;;;;;105.78;26.10;;;4.10;99.90;;;;;;5096774;28;20028;-78
2021/12/04 00:54:46;;;;;;;115.22;27.35;;;4.10;99.90;;;;;;5078280;28;20055;-79
2021/12/04 00:57:13;;;;;;;118.53;27.90;;;4.10;99.90;;;;;;5096557;28;20029;-78
2021/12/04 00:59:38;;;;;;;105.60;27.00;;;4.10;99.90;;;;;;5061643;28;20132;-78
2021/12/04 01:02:05;;;;;;;131.93;28.08;;;4.10;99.90;;;;;;5096585;28;20107;-78
2021/12/04 01:04:31;;;;;;;150.15;29.50;;;4.10;99.90;;;;;;5096330;28;20044;-79
2021/12/04 01:06:57;;;;;;;124.75;27.63;;;4.10;99.90;;;;;;5096441;28;20129;-78
2021/12/04 01:09:25;;;;;;;147.88;29.80;;;4.10;99.90;;;;;;5096283;28;20040;-79
2021/12/04 01:11:52;;;;;;;123.75;28.58;;;4.10;99.90;;;;;;5077771;28;20048;-79
2021/12/04 01:14:21;;;;;;;146.55;29.95;;;4.10;99.90;;;;;;5096066;28;20044;-79
2021/12/04 01:16:48;;;;;;;110.50;27.17;;;4.10;99.90;;;;;;5096271;28;20044;-79
2021/12/04 01:19:14;;;;;;;129.77;28.45;;;4.10;99.90;;;;;;5077766;28;20043;-78
2021/12/04 01:21:41;;;;;;;141.95;29.38;;;4.10;99.90;;;;;;5096130;28;20098;-79
2021/12/04 01:24:07;;;;;;;122.05;26.88;;;4.10;99.90;;;;;;5061352;28;20052;-78
2021/12/04 01:26:33;;;;;;;116.30;27.05;;;4.10;99.90;;;;;;5061099;28;20052;-78
2021/12/04 01:28:58;;;;;;;116.63;27.55;;;4.10;99.90;;;;;;5095358;28;20051;-78
2021/12/04 01:31:24;;;;;;;107.82;26.50;;;4.10;99.90;;;;;;5095744;28;20047;-78
2021/12/04 01:33:50;;;;;;;123.03;27.75;;;4.80;99.90;;;;;;5077316;28;20055;-79
2021/12/04 01:36:16;;;;;;;115.75;28.10;;;4.10;99.90;;;;;;5095768;28;20044;-79
2021/12/04 01:38:42;;;;;;;125.25;27.88;;;4.80;99.90;;;;;;5095952;28;20455;-79
2021/12/04 01:41:08;;;;;;;120.63;27.17;;;4.10;99.90;;;;;;5077048;28;20118;-79
2021/12/04 01:43:34;;;;;;;115.93;26.13;;;4.10;99.90;;;;;;5095888;28;20044;-78
2021/12/04 01:46:00;;;;;;;105.10;26.00;;;4.10;99.90;;;;;;5095460;28;20047;-79
2021/12/04 01:48:26;;;;;;;98.50;24.92;;;4.10;99.90;;;;;;5095230;28;20040;-79
2021/12/04 01:50:52;;;;;;;92.35;25.35;;;4.10;99.90;;;;;;5077199;28;20032;-79
2021/12/04 01:53:19;;;;;;;108.28;25.88;;;4.20;99.90;;;;;;5095597;28;20048;-79
2021/12/04 01:55:45;;;;;;;94.50;24.55;;;4.20;99.90;;;;;;5095324;28;20097;-79
2021/12/04 01:58:12;;;;;;;90.15;24.90;;;4.10;99.90;;;;;;5060462;28;20420;-79
2021/12/04 02:00:40;;;;;;;86.30;24.17;;;4.20;99.90;;;;;;5095155;28;20403;-78
2021/12/04 02:03:08;;;;;;;78.47;23.67;;;4.20;99.90;;;;;;5095034;28;20040;-79
2021/12/04 02:05:40;;;;;;;65.97;20.27;;;4.10;99.90;;;;;;5076638;28;20043;-78
2021/12/04 02:08:12;;;;;;;70.82;22.27;;;4.10;99.90;;;;;;5076603;28;20092;-79
2021/12/04 02:10:40;;;;;;;69.75;21.45;;;4.10;99.90;;;;;;5076554;28;20040;-79
2021/12/04 02:13:05;;;;;;;61.60;20.40;;;4.10;99.90;;;;;;5095006;28;20051;-79
2021/12/04 02:15:31;;;;;;;67.38;19.40;;;4.10;99.90;;;;;;5094685;28;20040;-79
2021/12/04 02:17:57;;;;;;;63.83;20.10;;;4.10;99.90;;;;;;5076690;28;20406;-79
2021/12/04 02:20:27;;;;;;;63.65;20.23;;;4.10;99.90;;;;;;5076168;28;20047;-78
2021/12/04 02:22:55;;;;;;;50.25;18.63;;;4.10;99.90;;;;;;5076494;28;20051;-79
2021/12/04 02:25:21;;;;;;;61.63;19.50;;;4.70;99.90;;;;;;5094881;28;20062;-79
2021/12/04 02:27:47;;;;;;;59.85;19.67;;;4.10;99.90;;;;;;5076754;28;20047;-79
2021/12/04 02:30:19;;;;;;;57.47;18.58;;;4.20;99.90;;;;;;5094579;28;20098;-79
2021/12/04 02:32:46;;;;;;;57.28;18.45;;;4.10;99.90;;;;;;5076209;28;20044;-78
2021/12/04 02:35:12;;;;;;;54.13;18.65;;;4.10;99.90;;;;;;5076689;28;20147;-79
2021/12/04 02:37:39;;;;;;;54.45;19.13;;;4.10;99.90;;;;;;5059780;28;20044;-78
2021/12/04 02:40:08;;;;;;;52.47;18.08;;;4.20;99.90;;;;;;5093649;28;20059;-79
2021/12/04 02:42:34;;;;;;;59.03;18.25;;;4.20;99.90;;;;;;5094322;28;20132;-78
2021/12/04 02:45:02;;;;;;;56.25;19.10;;;4.10;99.90;;;;;;5076328;28;20043;-79
2021/12/04 02:47:28;;;;;;;50.08;17.77;;;4.10;99.90;;;;;;5075858;28;20076;-79
2021/12/04 02:49:55;;;;;;;53.58;18.92;;;4.30;99.90;;;;;;5094355;28;20054;-79
2021/12/04 02:52:22;;;;;;;62.55;19.63;;;4.70;99.90;;;;;;5059284;28;20048;-78
2021/12/04 02:54:49;;;;;;;54.75;18.25;;;4.10;99.90;;;;;;5076031;28;20100;-78
2021/12/04 02:57:17;;;;;;;61.22;18.98;;;4.10;99.90;;;;;;5076052;28;20071;-79
2021/12/04 02:59:43;;;;;;;54.15;17.77;;;4.10;99.90;;;;;;5075941;28;20478;-78
2021/12/04 03:02:19;;;;;;;63.60;19.42;;;4.10;99.90;;;;;;5094016;28;20043;-79
2021/12/04 03:04:50;;;;;;;64.20;18.10;;;4.10;99.90;;;;;;5094234;28;20055;-79
2021/12/04 03:07:17;;;;;;;62.80;19.35;;;4.10;99.90;;;;;;5093953;28;20146;-79
2021/12/04 03:09:43;;;;;;;65.60;18.88;;;4.10;99.90;;;;;;5093993;28;20047;-79
2021/12/04 03:12:10;;;;;;;57.58;18.67;;;4.10;99.90;;;;;;5094015;28;20036;-79
2021/12/04 03:14:35;;;;;;;64.55;19.42;;;4.10;99.90;;;;;;5093679;28;20080;-79
2021/12/04 03:17:02;;;;;;;71.97;19.35;;;4.20;99.90;;;;;;5094037;28;20044;-78
2021/12/04 03:19:28;;;;;;;60.10;18.45;;;4.20;99.90;;;;;;5093971;28;20046;-79
2021/12/04 03:21:54;;;;;;;69.30;18.83;;;4.20;99.90;;;;;;5093846;28;20115;-79
2021/12/04 03:24:21;;;;;;;72.25;19.23;;;4.20;99.90;;;;;;5093751;28;20051;-79
2021/12/04 03:26:49;;;;;;;74.55;20.20;;;4.30;99.90;;;;;;5093628;28;20046;-79
2021/12/04 03:29:19;;;;;;;69.13;18.33;;;4.10;99.90;;;;;;5075102;28;20094;-79
2021/12/04 03:42:39;;;;;;;67.38;19.33;;;4.10;99.90;;;;;;5093796;28;20048;-79
2021/12/04 03:45:08;;;;;;;76.50;19.13;;;4.10;99.90;;;;;;5093717;28;20044;-78
2021/12/04 03:47:34;;;;;;;76.05;18.50;;;4.20;99.90;;;;;;5075860;28;20505;-79
2021/12/04 03:50:00;;;;;;;71.50;18.70;;;4.10;99.90;;;;;;5075425;28;20425;-79
2021/12/04 03:52:25;;;;;;;68.90;18.67;;;4.20;99.90;;;;;;5097404;28;20121;-79
2021/12/04 03:54:51;;;;;;;92.00;19.92;;;4.10;99.90;;;;;;5098053;28;20048;-79
2021/12/04 03:57:17;;;;;;;75.75;19.08;;;4.20;99.90;;;;;;5097729;28;20052;-79
2021/12/04 03:59:47;;;;;;;90.85;21.80;;;4.10;99.90;;;;;;5098247;28;20037;-78
2021/12/04 04:02:15;;;;;;;85.43;20.50;;;4.10;99.90;;;;;;5063210;28;20098;-78
2021/12/04 04:04:41;;;;;;;94.40;21.50;;;4.50;99.90;;;;;;5097716;28;20506;-78
2021/12/04 04:07:07;;;;;;;85.05;20.15;;;4.10;99.90;;;;;;5098122;28;20044;-79
2021/12/04 04:09:33;;;;;;;87.53;19.85;;;4.10;99.90;;;;;;5097939;28;20038;-79
2021/12/04 04:12:00;;;;;;;89.40;20.90;;;4.10;99.90;;;;;;5097508;28;20127;-79
2021/12/04 04:14:26;;;;;;;70.65;19.30;;;4.20;99.90;;;;;;5097249;28;20106;-79
2021/12/04 04:16:54;;;;;;;89.32;20.63;;;4.20;99.90;;;;;;5097332;28;20079;-79
2021/12/04 04:19:20;;;;;;;80.90;19.50;;;4.20;99.90;;;;;;5097189;28;20051;-78
2021/12/04 04:21:47;;;;;;;77.85;20.05;;;4.20;99.90;;;;;;5097167;28;20055;-78
2021/12/04 04:24:17;;;;;;;90.50;21.02;;;4.20;99.90;;;;;;5097004;28;20450;-79
2021/12/04 04:26:44;;;;;;;86.47;20.50;;;4.20;99.90;;;;;;5097220;28;20181;-79
2021/12/04 04:29:11;;;;;;;80.68;21.13;;;4.20;99.90;;;;;;5096840;28;20052;-78
2021/12/04 04:31:48;;;;;;;83.07;20.73;;;4.20;99.90;;;;;;5097012;28;20089;-79
2021/12/04 04:34:22;;;;;;;98.82;21.27;;;4.20;99.90;;;;;;5096892;28;20386;-79
2021/12/04 05:01:25;;;;;;;82.88;19.90;;;4.20;99.90;;;;;;5096606;28;20387;-79
2021/12/04 05:14:40;;;;;;;92.88;19.65;;;4.20;99.90;;;;;;5095991;28;20433;-79
2021/12/04 05:17:09;;;;;;;80.07;19.75;;;4.20;99.90;;;;;;5096193;28;20059;-78
2021/12/04 05:22:08;;;;;;;80.10;19.33;;;4.30;99.90;;;;;;5077594;28;20056;-79
2021/12/04 05:24:34;;;;;;;82.30;20.00;;;4.20;99.90;;;;;;5095875;28;20486;-78
2021/12/04 05:27:00;;;;;;;103.38;21.00;;;4.20;99.90;;;;;;5095821;28;20081;-79
2021/12/04 05:29:26;;;;;;;99.35;21.65;;;4.30;99.90;;;;;;5095943;28;20451;-79
2021/12/04 05:31:52;;;;;;;105.05;21.33;;;4.20;99.90;;;;;;5060626;28;20042;-79
2021/12/04 05:34:17;;;;;;;88.78;19.95;;;4.20;99.90;;;;;;5095878;28;20055;-78
2021/12/04 05:36:43;;;;;;;79.63;18.23;;;4.20;99.90;;;;;;5095636;28;20040;-78
2021/12/04 05:39:09;;;;;;;98.70;20.70;;;4.30;99.90;;;;;;5077281;28;20081;-79
2021/12/04 05:41:36;;;;;;;100.55;20.52;;;4.20;99.90;;;;;;5095333;28;20449;-79
2021/12/04 05:44:05;;;;;;;112.18;20.85;;;4.20;99.90;;;;;;5095882;28;20097;-79
2021/12/04 05:49:27;;;;;;;89.95;19.70;;;4.30;99.90;;;;;;4993538;28;20058;-79
2021/12/04 05:57:06;;;;;;;99.43;20.33;;;4.30;99.90;;;;;;4993595;28;20050;-79
2021/12/04 05:59:32;;;;;;;105.63;20.63;;;4.30;99.90;;;;;;4993488;28;20205;-79
2021/12/04 06:01:58;;;;;;;97.03;20.25;;;4.20;99.90;;;;;;4993566;28;20057;-79
2021/12/04 06:04:24;;;;;;;113.47;21.95;;;4.20;99.90;;;;;;4993346;28;20050;-78
2021/12/04 06:06:50;;;;;;;79.35;19.20;;;4.30;99.90;;;;;;4976841;28;20050;-79
2021/12/04 06:09:17;;;;;;;107.20;21.75;;;4.20;99.90;;;;;;4993273;28;20505;-79
2021/12/04 06:11:43;;;;;;;102.45;20.95;;;4.20;99.90;;;;;;4993379;28;20129;-79
2021/12/04 06:14:09;;;;;;;93.05;19.80;;;4.30;99.90;;;;;;4992224;28;20054;-79
2021/12/04 06:16:35;;;;;;;105.05;20.65;;;4.20;99.90;;;;;;4993193;28;20108;-79
2021/12/04 06:19:10;;;;;;;107.75;20.88;;;4.60;99.90;;;;;;4993175;28;20150;-78
2021/12/04 06:24:20;;;;;;;;;;;4.50;99.90;;;;;;4993561;28;19969;-79
2021/12/04 06:26:45;;;;;;;;;;;4.20;99.90;;;;;;5044405;28;20032;-78
2021/12/04 06:29:11;;;;;;;;;;;4.20;99.90;;;;;;5095053;28;19920;-79
2021/12/04 06:31:36;;;;;;;;;;;4.20;99.90;;;;;;5095091;28;19943;-79
2021/12/04 06:34:02;;;;;;;;;;;4.20;99.90;;;;;;5094922;28;19927;-79
2021/12/04 06:36:28;;;;;;;;;;;4.20;99.90;;;;;;5095120;28;20286;-79
2021/12/04 06:38:54;;;;;;;;;;;4.20;99.90;;;;;;5094815;28;19920;-79
2021/12/04 06:41:20;;;;;;;;;;;4.20;99.90;;;;;;5094793;28;19924;-79
2021/12/04 06:43:50;;;;;;;;;;;4.20;99.90;;;;;;5076765;28;20321;-79
2021/12/04 06:46:17;;;;;;;;;;;4.20;99.90;;;;;;5094791;28;19931;-78
2021/12/04 06:48:51;;;;;;;;;;;4.20;99.90;;;;;;5094736;28;19920;-79
2021/12/04 06:53:51;;;;;;;;;;;4.20;99.90;;;;;;5094903;28;19964;-79
2021/12/04 06:56:18;;;;;;;;;;;4.90;99.90;;;;;;5094984;28;20323;-79
2021/12/04 06:58:44;;;;;;;;;;;4.20;99.90;;;;;;5094546;28;19924;-79
2021/12/04 07:01:12;;;;;;;;;;;4.20;99.90;;;;;;5094542;28;20070;-78
2021/12/04 07:03:39;;;;;;;;;;;4.70;99.90;;;;;;5094437;28;20010;-79
2021/12/04 07:06:04;;;;;;;;;;;4.20;99.90;;;;;;5094446;28;19920;-79
2021/12/04 07:08:30;;;;;;;;;;;4.20;99.90;;;;;;5094414;28;19930;-78
2021/12/04 07:10:55;;;;;;;;;;;4.20;99.90;;;;;;5094325;28;19920;-79
2021/12/04 07:13:21;;;;;;;;;;;4.20;99.90;;;;;;5076167;28;20267;-79
2021/12/04 07:15:47;;;;;;;;;;;4.20;99.90;;;;;;5094243;28;19920;-79
2021/12/04 07:18:13;;;;;;;;;;;4.30;99.90;;;;;;5094341;28;20378;-79
2021/12/04 07:20:38;;;;;;;;;;;4.30;99.90;;;;;;5076521;28;19920;-79
2021/12/04 07:23:04;;;;;;;;;;;4.30;99.90;;;;;;5094269;28;19999;-79
2021/12/04 07:25:30;;;;;;;;;;;4.20;99.90;;;;;;5058859;28;20343;-79
2021/12/04 07:27:56;;;;;;;;;;;4.20;99.90;;;;;;5094168;28;19920;-79
2021/12/04 07:30:22;;;;;;;;;;;4.20;99.90;;;;;;5076934;28;19919;-79
2021/12/04 07:32:47;;;;;;;;;;;5.10;99.90;;;;;;5094186;28;19920;-79
2021/12/04 07:35:14;;;;;;;;;;;4.20;99.90;;;;;;5095101;28;20327;-79
2021/12/04 07:37:39;;;;;;;;;;;4.20;99.90;;;;;;5094505;28;19919;-78
2021/12/04 07:40:05;;;;;;;;;;;4.20;99.90;;;;;;5094153;28;20413;-79
2021/12/04 07:42:31;;;;;;;;;;;4.20;99.90;;;;;;5094005;28;20073;-79
2021/12/04 07:44:58;;;;;;;;;;;4.20;99.90;;;;;;5076217;28;19915;-79
2021/12/04 07:47:24;;;;;;;;;;;4.20;99.90;;;;;;5094001;28;19924;-78
2021/12/04 07:49:49;;;;;;;;;;;4.20;99.90;;;;;;5093873;28;20442;-78
2021/12/04 07:52:15;;;;;;;;;;;4.20;99.90;;;;;;5094036;28;19979;-78
2021/12/04 07:54:42;;;;;;;;;;;4.20;99.90;;;;;;5077278;28;19959;-80
2021/12/04 07:57:07;;;;;;;;;;;4.30;99.90;;;;;;5095163;28;19920;-78
2021/12/04 07:59:33;;;;;;;;;;;4.30;99.90;;;;;;5093970;28;19946;-78
2021/12/04 08:01:59;;;;;;;;;;;4.20;99.90;;;;;;5093793;28;19920;-78
2021/12/04 08:04:25;;;;;;;;;;;4.20;99.90;;;;;;5058909;28;19978;-79
2021/12/04 08:06:51;;;;;;;;;;;4.20;99.90;;;;;;5094143;28;20295;-80
2021/12/04 08:09:17;;;;;;;;;;;4.20;99.90;;;;;;5096746;28;19927;-79
2021/12/04 08:11:42;;;;;;;;;;;4.20;99.90;;;;;;5075686;28;19973;-78
2021/12/04 08:14:08;;;;;;;;;;;4.20;99.90;;;;;;5093800;28;19925;-79
2021/12/04 08:16:33;;;;;;;;;;;4.30;99.90;;;;;;5093939;28;19919;-79
2021/12/04 08:18:59;;;;;;;;;;;4.30;99.90;;;;;;5095947;28;19924;-79
2021/12/04 08:21:25;;;;;;;;;;;4.80;99.90;;;;;;5093676;28;19978;-78
2021/12/04 08:23:51;;;;;;;;;;;4.90;99.90;;;;;;5093500;28;19920;-78
2021/12/04 08:26:16;;;;;;;;;;;4.30;99.90;;;;;;5094771;28;19920;-79
2021/12/04 08:28:42;;;;;;;;;;;4.60;99.90;;;;;;5095245;28;19927;-79
2021/12/04 08:31:07;;;;;;;;;;;4.30;99.90;;;;;;5095645;28;20290;-78
2021/12/04 08:33:33;;;;;;;;;;;4.30;99.90;;;;;;5094300;28;19959;-79
2021/12/04 08:36:00;;;;;;;;;;;4.30;99.90;;;;;;5094412;28;19920;-80
2021/12/04 08:38:26;;;;;;;;;;;4.80;99.90;;;;;;5078725;28;19928;-79
2021/12/04 08:40:52;;;;;;;;;;;4.30;99.90;;;;;;5098931;28;19989;-80
2021/12/04 08:43:18;;;;;;;;;;;4.20;99.90;;;;;;5097934;28;19919;-79
2021/12/04 08:45:44;;;;;;;;;;;4.30;99.90;;;;;;5097596;28;19955;-79
2021/12/04 08:48:09;;;;;;;;;;;4.70;99.90;;;;;;5097535;28;19946;-79
2021/12/04 08:50:35;;;;;;;;;;;4.30;99.90;;;;;;5097329;28;19924;-79
2021/12/04 08:53:02;;;;;;;;;;;4.30;99.90;;;;;;5079547;28;19916;-79
2021/12/04 08:55:28;;;;;;;;;;;4.30;99.90;;;;;;5098398;28;19920;-79
2021/12/04 08:57:54;;;;;;;;;;;4.20;99.90;;;;;;5098520;28;19916;-79
2021/12/04 09:00:23;;;;;;;;;;;5.20;99.90;;;;;;5080701;28;20398;-80
2021/12/04 09:02:49;;;;;;;;;;;4.30;99.90;;;;;;5098625;28;19946;-80
2021/12/04 09:05:16;;;;;;;;;;;4.30;99.90;;;;;;5098775;28;19915;-80
2021/12/04 09:07:41;;;;;;;;;;;4.60;99.90;;;;;;5082497;28;20018;-80
2021/12/04 09:10:08;;;;;;;;;;;4.50;99.90;;;;;;5099732;28;19963;-80
2021/12/04 09:12:34;;;;;;;;;;;4.30;99.90;;;;;;5075822;23;20019;-82
2021/12/04 09:15:07;;;;;;;;;;;4.40;99.90;;;;;;5034990;23;19925;-81
2021/12/04 09:17:32;;;;;;;;;;;4.30;99.90;;;;;;5062307;22;21046;-82
2021/12/04 09:19:58;;;;;;;;;;;4.30;99.90;;;;;;5101239;28;19954;-80
2021/12/04 09:22:26;;;;;;;;;;;4.40;99.90;;;;;;5081000;28;19924;-79
2021/12/04 09:24:55;;;;;;;;;;;4.40;99.90;;;;;;5079507;28;19920;-79
2021/12/04 09:59:33;;;;;;;;;;;4.40;99.90;;;;;;5096670;28;19919;-79
2021/12/04 10:02:05;;;;;;;;;;;4.40;99.90;;;;;;5096799;28;20297;-80
2021/12/04 10:15:56;;;;;;;;;;;4.40;99.90;;;;;;5096310;28;19920;-79
2021/12/04 10:33:45;;;;;;;;;;;5.30;99.90;;;;;;5096106;28;19924;-79
2021/12/04 10:36:11;;;;;;;;;;;4.50;99.90;;;;;;5077828;28;20401;-80
2021/12/04 10:38:44;;;;;;;;;;;4.60;99.90;;;;;;5095968;28;19970;-79
2021/12/04 10:41:11;;;;;;;;;;;4.60;99.90;;;;;;5060857;28;20002;-79
2021/12/04 10:43:37;;;;;;;;;;;4.80;99.90;;;;;;5095500;28;20366;-79
2021/12/04 10:46:10;;;;;;;;;;;4.50;99.90;;;;;;5060382;28;19928;-80
2021/12/04 10:48:37;;;;;;;;;;;4.50;99.90;;;;;;5095913;28;19920;-79
2021/12/04 10:51:20;;;;;;;;;;;4.50;99.90;;;;;;5095533;28;19920;-79
2021/12/04 10:53:49;;;;;;;;;;;4.50;99.90;;;;;;5095691;28;20028;-80
2021/12/04 11:04:48;;;;;;;;;;;4.60;99.90;;;;;;5095871;28;19927;-79
2021/12/04 11:21:33;;;;;;;;;;;4.60;99.90;;;;;;5076371;28;20003;-79
2021/12/04 11:42:46;;;;;;;;;;;4.70;99.90;;;;;;5075656;28;19920;-79
2021/12/04 11:45:19;;;;;;;;;;;4.60;99.90;;;;;;5094712;28;19920;-79
2021/12/04 11:47:47;;;;;;;;;;;5.60;99.90;;;;;;5094337;28;19927;-79
2021/12/04 11:50:18;;;;;;;;;;;4.60;99.90;;;;;;5076510;28;19970;-79
2021/12/04 11:52:48;;;;;;;;;;;4.60;99.90;;;;;;5094440;28;19924;-79
2021/12/04 11:55:14;;;;;;;;;;;4.70;99.90;;;;;;5094084;28;19923;-79
2021/12/04 11:57:40;;;;;;;;;;;4.70;99.90;;;;;;5076266;28;20382;-79
2021/12/04 12:00:08;;;;;;;;;;;4.70;99.90;;;;;;5094050;28;19920;-79
2021/12/04 12:02:34;;;;;;;;;;;4.80;99.90;;;;;;5094507;28;19930;-79
2021/12/04 12:04:59;;;;;;;;;;;4.80;99.90;;;;;;5094561;28;19963;-79
2021/12/04 12:07:26;;;;;;;;;;;4.90;99.90;;;;;;5094280;28;19927;-79
2021/12/04 12:10:11;;;;;;;;;;;4.90;99.90;;;;;;5094301;28;20331;-79
2021/12/04 12:12:38;;;;;;;;;;;5.00;99.90;;;;;;5095513;28;19920;-79
2021/12/04 12:15:16;;;;;;;;;;;5.00;99.90;;;;;;5098388;28;19923;-79
2021/12/04 12:17:42;;;;;;;;;;;5.00;99.90;;;;;;5098326;28;19920;-79
2021/12/04 12:20:12;;;;;;;;;;;5.00;99.90;;;;;;5080010;28;19920;-80
2021/12/04 12:22:43;;;;;;;;;;;5.00;99.90;;;;;;5098052;28;20016;-79
2021/12/04 12:36:25;;;;;;;;;;;5.00;99.90;;;;;;5015603;28;19956;-79
2021/12/04 12:38:55;;;;;;;;;;;4.90;99.90;;;;;;4999158;28;19922;-79
2021/12/04 12:41:30;;;;;;;;;;;4.90;99.90;;;;;;5016382;28;20014;-79
2021/12/04 12:44:14;;;;;;;;;;;4.90;99.90;;;;;;5015646;28;20021;-80
2021/12/04 12:46:51;;;;;;;;;;;4.90;99.90;;;;;;5015724;28;20356;-79
2021/12/04 12:49:38;;;;;;;;;;;5.00;99.90;;;;;;4999043;28;19921;-79
2021/12/04 12:52:12;;;;;;;;;;;4.90;99.90;;;;;;5015507;28;19941;-80
2021/12/04 12:54:38;;;;;;;;;;;4.90;99.90;;;;;;5015403;28;20370;-79
2021/12/04 12:57:10;;;;;;;;;;;4.90;99.90;;;;;;5015385;28;19926;-79
2021/12/04 13:13:26;;;;;;;;;;;5.00;99.90;;;;;;5082013;28;19916;-80
2021/12/04 13:15:54;;;;;;;;;;;4.90;99.90;;;;;;5081388;28;20073;-80
2021/12/04 13:18:22;;;;;;;;;;;5.10;99.90;;;;;;5099956;28;19919;-80
2021/12/04 13:20:49;;;;;;;;;;;5.00;99.90;;;;;;5100908;28;19965;-80
2021/12/04 13:23:15;;;;;;;;;;;4.80;99.90;;;;;;5064658;28;19916;-80
2021/12/04 13:26:10;;;;;;;;;;;5.70;99.90;;;;;;5082199;28;19919;-80
2021/12/04 13:28:37;;;;;;;;;;;4.90;99.90;;;;;;4997988;28;19928;-79
2021/12/04 13:31:03;;;;;;;;;;;4.90;99.90;;;;;;4994966;28;20020;-79
2021/12/04 13:33:30;;;;;;;;;;;4.90;99.90;;;;;;4979110;28;20068;-80
2021/12/04 13:35:55;;;;;;;;;;;4.80;99.90;;;;;;4996322;28;20327;-79
2021/12/04 13:38:22;;;;;;;;;;;4.80;99.90;;;;;;4979954;28;19990;-80
2021/12/04 13:40:49;;;;;;;;;;;4.80;99.90;;;;;;4995610;28;20302;-79
2021/12/04 13:43:15;;;;;;;;;;;4.90;99.90;;;;;;4995594;28;20335;-79
2021/12/04 13:45:42;;;;;;;;;;;4.80;99.90;;;;;;4979063;28;20004;-79
2021/12/04 13:48:08;;;;;;;;;;;4.80;99.90;;;;;;4995296;28;20016;-79
2021/12/04 13:56:24;;;;;;;;;;;4.90;99.90;;;;;;4994974;28;19917;-79
2021/12/04 13:58:52;;;;;;;;;;;4.90;99.90;;;;;;4979212;28;19955;-79
2021/12/04 14:01:18;;;;;;;;;;;4.80;99.90;;;;;;4995682;28;19921;-80
2021/12/04 14:03:45;;;;;;;;;;;4.90;99.90;;;;;;4995420;28;19928;-80
2021/12/04 14:06:16;;;;;;;;;;;4.90;99.90;;;;;;5097649;28;19920;-80
2021/12/04 14:08:41;;;;;;;;;;;4.80;99.90;;;;;;5096149;28;19920;-79
2021/12/04 14:11:07;;;;;;;;;;;4.80;99.90;;;;;;5061046;28;19920;-79
2021/12/04 14:13:32;;;;;;;;;;;4.80;99.90;;;;;;5096210;28;19920;-79
2021/12/04 14:15:58;;;;;;;;;;;4.80;99.90;;;;;;5096310;28;19998;-80
2021/12/04 14:18:25;;;;;;;;;;;4.80;99.90;;;;;;5077873;28;19971;-79
2021/12/04 14:27:35;;;;;;;;;;;4.80;99.90;;;;;;4994019;28;19988;-79
2021/12/04 14:30:04;;;;;;;;;;;4.80;99.90;;;;;;4994098;28;19922;-79
2021/12/04 14:32:32;;;;;;;;;;;4.80;99.90;;;;;;4993910;28;20387;-80
2021/12/04 14:34:59;;;;;;;;;;;4.80;99.90;;;;;;4993282;28;19921;-80
2021/12/04 14:37:26;;;;;;;;;;;4.80;99.90;;;;;;4993931;28;19921;-80
2021/12/04 14:39:52;;;;;;;;;;;4.80;99.90;;;;;;4993879;28;19929;-79
2021/12/04 14:42:22;;;;;;;;;;;4.80;99.90;;;;;;4994093;28;20361;-79
2021/12/04 14:44:49;;;;;;;;;;;4.80;99.90;;;;;;4993983;28;20280;-79
2021/12/04 14:47:16;;;;;;;;;;;4.80;99.90;;;;;;4961450;28;19921;-79
2021/12/04 14:49:42;;;;;;;;;;;4.80;99.90;;;;;;4994102;28;20396;-79
2021/12/04 14:52:08;;;;;;;;;;;4.80;99.90;;;;;;4994024;28;19929;-79
2021/12/04 14:54:36;;;;;;;;;;;4.80;99.90;;;;;;4993981;28;19921;-79
2021/12/04 14:57:02;;;;;;;;;;;4.80;99.90;;;;;;4994093;28;20016;-80
2021/12/04 14:59:32;;;;;;;;;;;4.80;99.90;;;;;;4993584;28;19992;-79
2021/12/04 15:01:58;;;;;;;;;;;4.80;99.90;;;;;;5095859;28;19989;-79
2021/12/04 15:04:23;;;;;;;;;;;4.80;99.90;;;;;;5095717;28;19924;-80
2021/12/04 15:06:49;;;;;;;;;;;4.80;99.90;;;;;;5095512;28;20383;-80
2021/12/04 15:09:15;;;;;;;;;;;5.00;99.90;;;;;;5076761;28;19920;-79
2021/12/04 15:11:42;;;;;;;;;;;4.80;99.90;;;;;;5095499;28;20010;-79
2021/12/04 15:14:10;;;;;;;;;;;4.80;99.90;;;;;;5095449;28;20335;-79
2021/12/04 15:16:50;;;;;;;;;;;5.20;99.90;;;;;;5095123;28;19920;-79
2021/12/04 15:19:19;;;;;;;;;;;4.70;99.90;;;;;;5094301;28;19920;-79
2021/12/04 15:21:51;;;;;;;;;;;4.70;99.90;;;;;;5094573;28;19974;-79
2021/12/04 15:24:23;;;;;;;;;;;4.80;99.90;;;;;;5094652;28;19916;-79
2021/12/04 15:26:54;;;;;;;;;;;4.80;99.90;;;;;;5094650;28;19920;-79
2021/12/04 15:29:22;;;;;;;;;;;4.80;99.90;;;;;;5094228;28;20357;-79
2021/12/04 15:31:48;;;;;;;;;;;4.80;99.90;;;;;;5094166;28;20411;-79
2021/12/04 15:34:13;;;;;;;;;;;4.80;99.90;;;;;;5075973;28;19920;-79
2021/12/04 15:36:44;;;;;;;;;;;4.80;99.90;;;;;;5094410;28;19953;-79
2021/12/04 15:39:17;;;;;;;;;;;4.80;99.90;;;;;;5094462;28;19916;-79
2021/12/04 15:42:10;;;;;;;;;;;4.80;99.90;;;;;;5076207;28;19920;-79
2021/12/04 15:44:45;;;;;;;;;;;4.80;99.90;;;;;;5094450;28;19916;-79
2021/12/04 15:50:25;;;;;;;;;;;4.80;99.90;;;;;;5098553;28;19943;-79
2021/12/04 15:52:59;;;;;;;;;;;4.80;99.90;;;;;;5079870;28;20430;-79
2021/12/04 15:55:30;;;;;;;;;;;4.80;99.90;;;;;;5098456;28;19927;-79
2021/12/04 15:57:57;;;;;;;;;;;4.80;99.90;;;;;;5098146;28;19947;-79
2021/12/04 16:00:24;;;;;;;;;;;4.80;99.90;;;;;;5098369;28;19992;-79
2021/12/04 16:02:55;;;;;;;;;;;4.80;99.90;;;;;;5098754;28;20019;-79
2021/12/04 16:05:22;;;;;;;;;;;4.80;99.90;;;;;;5080600;28;19998;-79
2021/12/04 16:07:49;;;;;;;;;;;4.80;99.90;;;;;;5098259;28;20358;-79
2021/12/04 16:10:19;;;;;;;;;;;4.80;99.90;;;;;;5098408;28;20315;-79
2021/12/04 16:12:45;;;;;;;;;;;4.80;99.90;;;;;;5097893;28;20422;-79
2021/12/04 16:15:14;;;;;;;;;;;4.80;99.90;;;;;;5097814;28;19920;-79
2021/12/04 16:17:40;;;;;;;;;;;4.80;99.90;;;;;;5097903;28;20281;-79
2021/12/04 16:20:10;;;;;;;;;;;4.90;99.90;;;;;;5079647;28;20000;-79
2021/12/04 16:22:37;;;;;;;;;;;4.80;99.90;;;;;;5079950;28;19920;-79
2021/12/04 16:25:04;;;;;;;;;;;4.80;99.90;;;;;;5098038;28;19920;-79
2021/12/04 16:27:33;;;;;;;;;;;4.80;99.90;;;;;;5097961;28;19982;-79
2021/12/04 16:30:36;;;;;;;;;;;4.80;99.90;;;;;;5097782;28;19927;-79
2021/12/04 16:38:02;;;;;;;;;;;4.80;99.90;;;;;;5097785;28;19927;-79
2021/12/04 16:40:30;;;;;;;;;;;4.90;99.90;;;;;;5097769;28;20387;-79
2021/12/04 16:43:07;;;;;;;;;;;4.90;99.90;;;;;;5097672;28;19920;-79
2021/12/04 16:45:33;;;;;;;;;;;4.80;99.90;;;;;;5097619;28;20014;-79
2021/12/04 16:48:04;;;;;;;;;;;4.90;99.90;;;;;;5097104;28;19927;-79
2021/12/04 16:50:43;;;;;;;;;;;4.90;99.90;;;;;;5078995;28;19920;-79
2021/12/04 16:58:21;;;;;;;;;;;4.90;99.90;;;;;;5096415;28;19927;-79
2021/12/04 17:00:48;;;;;;;;;;;4.90;99.90;;;;;;5097291;28;19920;-79
2021/12/04 17:03:16;;;;;;;;;;;4.90;99.90;;;;;;5096909;28;19931;-79
2021/12/04 17:05:42;;;;;;;;;;;4.90;99.90;;;;;;5078995;28;20328;-79
2021/12/04 17:08:09;;;;;;;;;;;4.90;99.90;;;;;;5096955;28;19920;-79
2021/12/04 17:10:35;;;;;;;;;;;4.90;99.90;;;;;;5079141;28;19920;-79
2021/12/04 17:13:00;;;;;;;;;;;4.90;99.90;;;;;;5098143;28;19920;-81
2021/12/04 17:15:27;;;;;;;;;;;4.90;99.90;;;;;;5099387;28;19966;-79
2021/12/04 17:17:53;;;;;;;;;;;4.90;99.90;;;;;;5096819;28;20294;-79
2021/12/04 17:20:21;;;;;;;;;;;4.90;99.90;;;;;;5096978;28;19920;-79
2021/12/04 17:22:47;;;;;;;;;;;4.90;99.90;;;;;;5096958;28;19977;-79
2021/12/04 17:25:13;;;;;;;;;;;4.80;99.90;;;;;;5096320;28;19920;-79
2021/12/04 17:27:39;;;;;;;;;;;4.90;99.90;;;;;;5100522;28;19927;-80
2021/12/04 17:30:07;;;;;;;;;;;4.80;99.90;;;;;;5081246;28;20010;-79